Terminal Aerodrome Forecast
Issued by NWS Cleveland, OH

Home | Current Version | Previous Version | Text Only | Print | Product List | Glossary Off
Versions: 1 2 3 4 5 6 7 8 9 10 11 12 13 14

000
FTUS41 KCLE 190400 AAB
TAFYNG
TAF AMD
KYNG 190424Z 1904/1924 26006KT 3SM -FZDZSN BR OVC004
     FM190600 26006KT 5SM -FZDZSN BR OVC006
     FM191000 28005KT P6SM -SN OVC006
     FM191300 30005KT P6SM OVC012=

USA.gov is the U.S. government's official web portal to all federal, state and local government web resources and services.